Time;durP1;ratioP1;P1;durP2;ratioP2;P2;SDS_P1;SDS_P2;PMS_P1;PMS_P2;Temp;Humidity;BMP_temperature;BMP_pressure;BME280_temperature;BME280_humidity;BME280_pressure;Samples;Min_cycle;Max_cycle;Signal;HPM_P1;HPM_P2
2024/03/26 00:03:14;;;;;;;11;6.1;;;;;;;3.56;87.01;97890;;;;
2024/03/26 00:14:14;;;;;;;11;6.1;;;;;;;3.36;86.77;97885;;;;
2024/03/26 00:24:14;;;;;;;11.7;6.3;;;;;;;2.97;86.17;97893.333333333;;;;
2024/03/26 00:35:14;;;;;;;11.7;6.3;;;;;;;2.54;86.09;97891.666666667;;;;
2024/03/26 00:46:14;;;;;;;11.7;6.3;;;;;;;2.14;86.4;97893.333333333;;;;
2024/03/26 00:56:14;;;;;;;14.4;9.1;;;;;;;1.86;87.24;97896.666666667;;;;
2024/03/26 01:07:14;;;;;;;14.4;9.1;;;;;;;1.7;87.64;97901.666666667;;;;
2024/03/26 01:17:15;;;;;;;14.4;9.1;;;;;;;1.56;88.54;97901.666666667;;;;
2024/03/26 01:28:14;;;;;;;13.5;8.1;;;;;;;1.43;88.26;97905;;;;
2024/03/26 01:38:15;;;;;;;13.5;8.1;;;;;;;1.21;88.62;97911.666666667;;;;
2024/03/26 01:49:14;;;;;;;13.5;8.1;;;;;;;1.02;88.44;97908.333333333;;;;
2024/03/26 02:00:15;;;;;;;13.5;7.7;;;;;;;0.91;89.33;97911.666666667;;;;
2024/03/26 02:11:15;;;;;;;13.5;7.7;;;;;;;0.89;90.11;97906.666666667;;;;
2024/03/26 02:22:14;;;;;;;14.3;9;;;;;;;0.85;91.24;97903.333333333;;;;
2024/03/26 02:32:14;;;;;;;14.3;9;;;;;;;0.87;90.85;97905;;;;
2024/03/26 02:43:14;;;;;;;14.3;9;;;;;;;0.64;90.6;97906.666666667;;;;
2024/03/26 02:53:15;;;;;;;10.9;7;;;;;;;0.43;89.86;97906.666666667;;;;
2024/03/26 03:03:15;;;;;;;10.9;7;;;;;;;0.28;89.95;97908.333333333;;;;
2024/03/26 03:14:14;;;;;;;10.9;7;;;;;;;0.17;89.9;97908.333333333;;;;
2024/03/26 03:25:15;;;;;;;12.6;7.4;;;;;;;0;89.71;97905;;;;
2024/03/26 03:36:14;;;;;;;12.6;7.4;;;;;;;-0.16;89.71;97903.333333333;;;;
2024/03/26 03:46:15;;;;;;;12.6;7.4;;;;;;;-0.33;89.78;97908.333333333;;;;
2024/03/26 03:56:15;;;;;;;11.4;7.7;;;;;;;-0.43;90.37;97908.333333333;;;;
2024/03/26 04:06:14;;;;;;;11.4;7.7;;;;;;;-0.49;90.44;97915;;;;
2024/03/26 04:16:15;;;;;;;11.4;7.7;;;;;;;-0.54;90.44;97916.666666667;;;;
2024/03/26 04:27:15;;;;;;;13.2;7.2;;;;;;;-0.61;90.23;97915;;;;
2024/03/26 04:37:15;;;;;;;13.2;7.2;;;;;;;-0.72;90.31;97908.333333333;;;;
2024/03/26 04:47:15;;;;;;;13.2;7.2;;;;;;;-0.65;90.56;97905;;;;
2024/03/26 04:58:15;;;;;;;15.2;8.2;;;;;;;-0.49;90.38;97905;;;;
2024/03/26 05:09:15;;;;;;;15.2;8.2;;;;;;;-0.34;90.66;97908.333333333;;;;
2024/03/26 05:20:15;;;;;;;15.2;8.2;;;;;;;-0.11;90.79;97915;;;;
2024/03/26 05:31:15;;;;;;;15.6;9.2;;;;;;;0.32;91.41;97920;;;;
2024/03/26 05:42:15;;;;;;;15.6;9.2;;;;;;;0.67;91.67;97925;;;;
2024/03/26 05:53:15;;;;;;;16.6;9.7;;;;;;;1.08;91.88;97916.666666667;;;;
2024/03/26 06:03:15;;;;;;;16.6;9.7;;;;;;;1.52;91.95;97915;;;;
2024/03/26 06:14:15;;;;;;;16.6;9.7;;;;;;;2.16;92.21;97915;;;;
2024/03/26 06:24:15;;;;;;;17.7;10.8;;;;;;;2.75;92.17;97913.333333333;;;;
2024/03/26 06:35:15;;;;;;;17.7;10.8;;;;;;;3.57;90.3;97908.333333333;;;;
2024/03/26 06:45:15;;;;;;;17.7;10.8;;;;;;;4.28;85.31;97906.666666667;;;;
2024/03/26 06:55:16;;;;;;;5.7;2.8;;;;;;;4.95;81.55;97910;;;;
2024/03/26 07:06:15;;;;;;;5.7;2.8;;;;;;;5.47;77.4;97911.666666667;;;;
2024/03/26 07:17:15;;;;;;;5.7;2.8;;;;;;;5.97;74.11;97916.666666667;;;;
2024/03/26 07:27:15;;;;;;;5.6;2.5;;;;;;;6.39;73.44;97915;;;;
2024/03/26 07:38:15;;;;;;;5.6;2.5;;;;;;;6.73;72.1;97913.333333333;;;;
2024/03/26 07:48:15;;;;;;;5.6;2.5;;;;;;;7.17;71.64;97906.666666667;;;;
2024/03/26 07:59:15;;;;;;;7.5;4.1;;;;;;;7.57;71.55;97888.333333333;;;;
2024/03/26 08:09:15;;;;;;;7.5;4.1;;;;;;;8.08;68.46;97883.333333333;;;;
2024/03/26 08:20:15;;;;;;;7.5;4.1;;;;;;;8.37;65.63;97871.666666667;;;;
2024/03/26 08:30:15;;;;;;;6;3.2;;;;;;;8.74;66.18;97863.333333333;;;;
2024/03/26 08:40:15;;;;;;;6;3.2;;;;;;;9.34;62.43;97856.666666667;;;;
2024/03/26 08:50:15;;;;;;;6;3.2;;;;;;;9.66;61.71;97853.333333333;;;;
2024/03/26 09:01:15;;;;;;;5.1;2.5;;;;;;;9.84;58.55;97848.333333333;;;;
2024/03/26 09:12:15;;;;;;;5.1;2.5;;;;;;;10.44;59.59;97841.666666667;;;;
2024/03/26 09:23:15;;;;;;;4.2;2;;;;;;;10.86;53.99;97836.666666667;;;;
2024/03/26 09:34:15;;;;;;;4.2;2;;;;;;;11;55.42;97830;;;;
2024/03/26 09:44:15;;;;;;;4.2;2;;;;;;;11.19;52.66;97821.666666667;;;;
2024/03/26 09:55:15;;;;;;;5.1;2.1;;;;;;;11.42;54.34;97803.333333333;;;;
2024/03/26 10:06:15;;;;;;;5.1;2.1;;;;;;;11.42;54;97796.666666667;;;;
2024/03/26 10:16:15;;;;;;;5.1;2.1;;;;;;;12.01;53.45;97793.333333333;;;;
2024/03/26 10:26:15;;;;;;;6.3;3;;;;;;;12.51;54.29;97793.333333333;;;;
2024/03/26 10:36:15;;;;;;;6.3;3;;;;;;;12.79;53.9;97790;;;;
2024/03/26 10:47:15;;;;;;;6.3;3;;;;;;;13.23;54.86;97781.666666667;;;;
2024/03/26 10:57:15;;;;;;;5.1;2.6;;;;;;;13.45;53.85;97760;;;;
2024/03/26 11:07:15;;;;;;;5.1;2.6;;;;;;;13.63;49.39;97755;;;;
2024/03/26 11:18:15;;;;;;;5.1;2.6;;;;;;;13.8;51.27;97740;;;;
2024/03/26 11:29:15;;;;;;;5.4;3;;;;;;;13.75;47.25;97725;;;;
2024/03/26 11:40:15;;;;;;;5.4;3;;;;;;;14.47;48.71;97721.666666667;;;;
2024/03/26 11:50:15;;;;;;;3.6;1.8;;;;;;;14.46;46.18;97713.333333333;;;;
2024/03/26 12:01:15;;;;;;;3.6;1.8;;;;;;;14.41;45.02;97695;;;;
2024/03/26 12:11:16;;;;;;;3.6;1.8;;;;;;;14.67;44.81;97680;;;;
2024/03/26 12:21:15;;;;;;;4.1;2.1;;;;;;;14.96;41.52;97655;;;;
2024/03/26 12:31:16;;;;;;;4.1;2.1;;;;;;;15.22;46.06;97635;;;;
2024/03/26 12:41:15;;;;;;;4.1;2.1;;;;;;;15.76;42.85;97613.333333333;;;;
2024/03/26 12:52:16;;;;;;;4.6;1.9;;;;;;;14.99;42.02;97600;;;;
2024/03/26 13:02:15;;;;;;;4.6;1.9;;;;;;;15.26;43.4;97600;;;;
2024/03/26 13:12:15;;;;;;;4.6;1.9;;;;;;;15.15;41.25;97586.666666667;;;;
2024/03/26 13:22:15;;;;;;;3.2;1.7;;;;;;;15;39.92;97570;;;;
2024/03/26 13:33:15;;;;;;;3.2;1.7;;;;;;;15.23;39.25;97550;;;;
2024/03/26 13:44:15;;;;;;;3.2;1.7;;;;;;;15.44;39.91;97538.333333333;;;;
2024/03/26 13:54:15;;;;;;;2.4;1.2;;;;;;;15.72;39.61;97516.666666667;;;;
2024/03/26 14:05:15;;;;;;;2.4;1.2;;;;;;;15.86;40.74;97511.666666667;;;;
2024/03/26 14:15:15;;;;;;;2.4;1.2;;;;;;;15.76;39.62;97498.333333333;;;;
2024/03/26 14:26:15;;;;;;;2.7;1.3;;;;;;;16.18;39.71;97473.333333333;;;;
2024/03/26 14:36:15;;;;;;;2.7;1.3;;;;;;;15.94;40.86;97441.666666667;;;;
2024/03/26 14:46:15;;;;;;;2.7;1.3;;;;;;;16.2;42.37;97426.666666667;;;;
2024/03/26 14:56:15;;;;;;;3;1.3;;;;;;;16.13;39.4;97423.333333333;;;;
2024/03/26 15:07:15;;;;;;;3;1.3;;;;;;;15.62;39.74;97410;;;;
2024/03/26 15:18:16;;;;;;;3;1.3;;;;;;;15.21;40.75;97396.666666667;;;;
2024/03/26 15:39:17;;;;;;;3.8;1.8;;;;;;;15.98;40.41;97368.333333333;;;;
2024/03/26 15:50:15;;;;;;;4.3;1.8;;;;;;;16.69;39.53;97363.333333333;;;;
2024/03/26 16:00:15;;;;;;;4.3;1.8;;;;;;;16.65;38.9;97355;;;;
2024/03/26 16:11:15;;;;;;;4.3;1.8;;;;;;;15.8;40.2;97353.333333333;;;;
2024/03/26 16:21:15;;;;;;;3.8;1.8;;;;;;;14.29;43.53;97348.333333333;;;;
2024/03/26 16:31:16;;;;;;;3.8;1.8;;;;;;;13.4;44.8;97346.666666667;;;;
2024/03/26 16:42:15;;;;;;;3.8;1.8;;;;;;;12.77;46.77;97345;;;;
2024/03/26 16:53:15;;;;;;;5.1;2.2;;;;;;;12.06;48.44;97341.666666667;;;;
2024/03/26 17:03:15;;;;;;;5.1;2.2;;;;;;;11.46;49.66;97340;;;;
2024/03/26 17:13:15;;;;;;;5.1;2.2;;;;;;;10.9;50.71;97331.666666667;;;;
2024/03/26 17:24:15;;;;;;;5.9;3;;;;;;;10.52;52.56;97333.333333333;;;;
2024/03/26 17:34:15;;;;;;;5.9;3;;;;;;;10.19;53.44;97333.333333333;;;;
2024/03/26 17:44:15;;;;;;;5.9;3;;;;;;;9.94;54.27;97338.333333333;;;;
2024/03/26 17:55:15;;;;;;;6.6;3.6;;;;;;;9.68;55.15;97336.666666667;;;;
2024/03/26 18:06:15;;;;;;;6.6;3.6;;;;;;;9.46;56.41;97338.333333333;;;;
2024/03/26 18:16:15;;;;;;;6.6;3.6;;;;;;;9.25;56.83;97345;;;;
2024/03/26 18:27:15;;;;;;;15.3;7.9;;;;;;;9.15;57.18;97343.333333333;;;;
2024/03/26 18:38:15;;;;;;;15.3;7.9;;;;;;;9.22;56.74;97336.666666667;;;;
2024/03/26 18:49:15;;;;;;;15.3;7.9;;;;;;;9.03;57.52;97325;;;;
2024/03/26 18:59:15;;;;;;;19.1;11.3;;;;;;;8.85;58.19;97316.666666667;;;;
2024/03/26 19:10:15;;;;;;;19.1;11.3;;;;;;;8.6;59.3;97316.666666667;;;;
2024/03/26 19:20:15;;;;;;;17.5;7.9;;;;;;;8.4;60;97306.666666667;;;;
2024/03/26 19:31:15;;;;;;;17.5;7.9;;;;;;;8.06;60.76;97305;;;;
2024/03/26 19:42:15;;;;;;;17.5;7.9;;;;;;;7.71;61.41;97313.333333333;;;;
2024/03/26 19:52:15;;;;;;;14.8;8.1;;;;;;;7.51;62.17;97298.333333333;;;;
2024/03/26 20:02:15;;;;;;;14.8;8.1;;;;;;;7.31;63.15;97296.666666667;;;;
2024/03/26 20:13:15;;;;;;;14.8;8.1;;;;;;;7.1;63.5;97293.333333333;;;;
2024/03/26 20:24:15;;;;;;;17.7;9.7;;;;;;;6.86;63.84;97280;;;;
2024/03/26 20:34:15;;;;;;;17.7;9.7;;;;;;;6.83;63.51;97276.666666667;;;;
2024/03/26 20:45:15;;;;;;;17.7;9.7;;;;;;;6.61;63.59;97266.666666667;;;;
2024/03/26 20:56:15;;;;;;;10.7;6.1;;;;;;;6.72;63.51;97271.666666667;;;;
2024/03/26 21:06:15;;;;;;;10.7;6.1;;;;;;;6.54;63.98;97266.666666667;;;;
2024/03/26 21:16:15;;;;;;;10.7;6.1;;;;;;;6.57;63.17;97258.333333333;;;;
2024/03/26 21:27:15;;;;;;;9;4.4;;;;;;;6.11;64.78;97250;;;;
2024/03/26 21:37:15;;;;;;;9;4.4;;;;;;;5.71;66.72;97248.333333333;;;;
2024/03/26 21:48:16;;;;;;;9;4.4;;;;;;;5.36;70.4;97231.666666667;;;;
2024/03/26 21:58:15;;;;;;;10.8;6.1;;;;;;;5.37;69.55;97230;;;;
2024/03/26 22:09:15;;;;;;;10.8;6.1;;;;;;;5.7;67.55;97236.666666667;;;;
2024/03/26 22:20:15;;;;;;;9;4.7;;;;;;;5.98;66.59;97238.333333333;;;;
2024/03/26 22:31:15;;;;;;;9;4.7;;;;;;;6.24;65.64;97226.666666667;;;;
2024/03/26 22:41:16;;;;;;;9;4.7;;;;;;;6.48;64.48;97223.333333333;;;;
2024/03/26 22:52:15;;;;;;;9.6;4.7;;;;;;;6.44;64.13;97218.333333333;;;;
2024/03/26 23:02:15;;;;;;;9.6;4.7;;;;;;;6.34;63.89;97223.333333333;;;;
2024/03/26 23:13:15;;;;;;;9.6;4.7;;;;;;;6.47;62.38;97220;;;;
2024/03/26 23:23:15;;;;;;;7.6;3.6;;;;;;;6.66;61.19;97215;;;;
2024/03/26 23:34:15;;;;;;;7.6;3.6;;;;;;;6.67;61.09;97206.666666667;;;;
2024/03/26 23:44:15;;;;;;;7.6;3.6;;;;;;;6.65;61.49;97193.333333333;;;;
2024/03/26 23:54:15;;;;;;;5.3;2.8;;;;;;;6.65;61.41;97185;;;;
